マドリード/バラハス の空港の天気 - METARとTAF

マドリード・バラハス国際空港 ( LEMD / MAD ) - スペイン マドリード
飛行場実況気象(Metar)
観測時間10/16 08:30 CEST (10/16 06:30 UTC)
風向・風速北北西 2m/s
視程8000m
天気現象
少しの雲 雲底高度 910m
気温10℃
湿度94%
気圧1014hPa
METARLEMD 160630Z 34003KT 8000 FEW030 10/09 Q1014 NOSIG
過去の天気等 Google飛行場航空写真 Wunderground天気予報

過去48時間のMETAR

飛行場予報(TAF)
発表時間: 10/16 07:00 CEST (10/16 05:00 UTC)
予報対象時間: 16日8時 CEST ~ 17日14時 CEST
風向・風速不定 3m/s
視程10km以上
全天の4割程度の雲 雲底高度 1220m
TAF LEMD 160500Z 1606/1712 VRB05KT 9999 SCT040 TX22/1615Z TN08/1706Z